createdAt,value
2019-04-05T00:03:25.072Z,14.87
2019-04-05T00:05:51.719Z,16.00
2019-04-05T00:08:18.441Z,15.27
2019-04-05T00:10:45.525Z,16.47
2019-04-05T00:13:12.612Z,17.77
2019-04-05T00:15:39.339Z,19.40
2019-04-05T00:18:06.368Z,16.10
2019-04-05T00:20:33.265Z,17.10
2019-04-05T00:22:59.898Z,17.27
2019-04-05T00:25:26.678Z,19.33
2019-04-05T00:27:53.363Z,18.07
2019-04-05T00:30:20.186Z,17.40
2019-04-05T00:32:46.965Z,17.93
2019-04-05T00:35:13.612Z,19.33
2019-04-05T00:37:40.358Z,17.80
2019-04-05T00:40:07.669Z,16.10
2019-04-05T00:42:34.651Z,18.77
2019-04-05T00:45:02.022Z,17.23
2019-04-05T00:47:28.867Z,17.77
2019-04-05T00:49:55.578Z,16.63
2019-04-05T00:52:22.425Z,18.93
2019-04-05T00:54:49.107Z,15.83
2019-04-05T00:57:16.380Z,17.37
2019-04-05T00:59:43.100Z,18.50
2019-04-05T01:02:10.171Z,16.30
2019-04-05T01:04:37.071Z,16.63
2019-04-05T01:07:03.789Z,16.23
2019-04-05T01:09:30.562Z,18.53
2019-04-05T01:11:57.342Z,19.33
2019-04-05T01:15:05.150Z,16.17
2019-04-05T01:17:31.991Z,17.60
2019-04-05T01:20:20.274Z,17.60
2019-04-05T01:22:47.005Z,18.20
2019-04-05T01:25:13.710Z,19.37
2019-04-05T01:28:21.640Z,16.50
2019-04-05T01:30:48.355Z,16.93
2019-04-05T01:33:15.293Z,16.80
2019-04-05T01:35:42.134Z,17.67
2019-04-05T01:38:49.894Z,17.63
2019-04-05T01:41:16.687Z,18.63
2019-04-05T01:43:43.407Z,19.80
2019-04-05T01:46:10.145Z,19.83
2019-04-05T01:48:37.330Z,17.30
2019-04-05T01:51:45.092Z,17.67
2019-04-05T01:54:11.981Z,18.03
2019-04-05T01:56:39.092Z,15.93
2019-04-05T01:59:18.784Z,17.67
2019-04-05T02:01:45.818Z,17.73
2019-04-05T02:04:12.639Z,18.13
2019-04-05T02:06:39.423Z,18.90
2019-04-05T02:09:47.999Z,17.63
2019-04-05T02:12:14.916Z,16.37
2019-04-05T02:14:41.603Z,16.73
2019-04-05T02:17:08.331Z,18.33
2019-04-05T02:19:35.108Z,19.80
2019-04-05T02:22:02.200Z,20.20
2019-04-05T02:24:28.922Z,18.10
2019-04-05T02:26:55.761Z,18.33
2019-04-05T02:29:22.478Z,16.47
2019-04-05T02:31:49.205Z,16.53
2019-04-05T02:34:15.984Z,17.90
2019-04-05T02:36:42.969Z,19.00
2019-04-05T02:39:09.689Z,18.23
2019-04-05T02:42:17.530Z,19.03
2019-04-05T02:45:25.281Z,18.63
2019-04-05T02:48:33.284Z,16.47
2019-04-05T02:51:41.053Z,19.33
2019-04-05T02:54:48.873Z,16.97
2019-04-05T02:57:15.663Z,19.30
2019-04-05T02:59:42.536Z,19.20
2019-04-05T03:02:09.766Z,19.00
2019-04-05T03:04:36.717Z,18.63
2019-04-05T03:07:44.569Z,20.33
2019-04-05T03:10:50.467Z,18.37
2019-04-05T03:13:17.270Z,18.13
2019-04-05T03:16:39.227Z,17.77
2019-04-05T03:19:36.291Z,18.90
2019-04-05T03:22:44.186Z,17.43
2019-04-05T03:25:10.946Z,17.30
2019-04-05T03:28:18.706Z,20.33
2019-04-05T03:31:26.823Z,16.83
2019-04-05T03:34:34.647Z,18.10
2019-04-05T03:37:01.496Z,19.60
2019-04-05T03:39:28.226Z,17.80
2019-04-05T03:44:41.733Z,25.07
2019-04-05T03:47:08.703Z,21.00
2019-04-05T03:49:35.961Z,21.73
2019-04-05T03:52:04.347Z,20.43
2019-04-05T03:54:31.062Z,17.80
2019-04-05T03:56:58.245Z,18.60
2019-04-05T03:59:25.255Z,20.10
2019-04-05T04:01:52.006Z,22.87
2019-04-05T04:04:56.200Z,20.57
2019-04-05T04:07:23.026Z,20.43
2019-04-05T04:09:50.222Z,22.30
2019-04-05T04:12:17.012Z,19.10
2019-04-05T04:14:44.047Z,20.60
2019-04-05T04:17:13.361Z,18.90
2019-04-05T04:19:40.315Z,21.17
2019-04-05T04:22:58.052Z,23.37
2019-04-05T04:25:24.887Z,22.73
2019-04-05T04:27:51.714Z,19.67
2019-04-05T04:30:18.704Z,20.57
2019-04-05T04:32:45.499Z,22.00
2019-04-05T04:35:12.236Z,22.87
2019-04-05T04:37:39.259Z,22.60
2019-04-05T04:40:06.300Z,21.57
2019-04-05T04:42:33.440Z,20.70
2019-04-05T04:45:11.275Z,23.47
2019-04-05T04:47:29.153Z,24.00
2019-04-05T04:50:37.192Z,22.03
2019-04-05T04:53:04.148Z,21.83
2019-04-05T04:55:31.244Z,21.47
2019-04-05T04:57:58.341Z,20.97
2019-04-05T05:00:25.330Z,23.57
2019-04-05T05:03:04.519Z,22.40
2019-04-05T05:05:31.781Z,24.63
2019-04-05T05:07:59.947Z,25.97
2019-04-05T05:11:14.315Z,27.87
2019-04-05T05:13:36.483Z,24.03
2019-04-05T05:16:44.410Z,26.27
2019-04-05T05:19:11.227Z,25.00
2019-04-05T05:22:19.081Z,29.63
2019-04-05T05:25:26.849Z,32.07
2019-04-05T05:27:53.717Z,33.23
2019-04-05T05:30:20.735Z,33.97
2019-04-05T05:32:47.614Z,36.83
2019-04-05T05:35:14.512Z,41.33
2019-04-05T05:37:41.241Z,57.37
2019-04-05T05:40:49.409Z,58.37
2019-04-05T05:43:16.141Z,64.00
2019-04-05T05:45:43.150Z,66.97
2019-04-05T05:48:09.980Z,65.07
2019-04-05T05:50:36.987Z,63.37
2019-04-05T05:53:03.713Z,64.97
2019-04-05T05:55:30.662Z,69.87
2019-04-05T05:57:58.730Z,73.67
2019-04-05T06:00:26.135Z,67.40
2019-04-05T06:02:52.909Z,75.77
2019-04-05T06:05:20.070Z,68.87
2019-04-05T06:07:47.068Z,65.93
2019-04-05T06:10:13.877Z,70.77
2019-04-05T06:12:40.617Z,70.47
2019-04-05T06:15:07.363Z,70.27
2019-04-05T06:17:34.297Z,73.13
2019-04-05T06:20:01.428Z,72.77
2019-04-05T06:22:28.557Z,72.67
2019-04-05T06:24:55.690Z,74.27
2019-04-05T06:27:22.418Z,75.70
2019-04-05T06:29:49.658Z,71.80
2019-04-05T06:32:16.713Z,75.77
2019-04-05T06:34:43.435Z,74.87
2019-04-05T06:37:30.012Z,72.53
2019-04-05T06:39:57.004Z,66.37
2019-04-05T06:42:23.978Z,73.90
2019-04-05T06:44:50.762Z,70.47
2019-04-05T06:47:17.876Z,71.50
2019-04-05T06:49:44.710Z,68.20
2019-04-05T06:52:11.856Z,73.23
2019-04-05T06:54:38.908Z,72.00
2019-04-05T06:57:06.231Z,69.00
2019-04-05T06:59:32.921Z,70.67
2019-04-05T07:01:59.644Z,62.83
2019-04-05T07:04:26.360Z,64.83
2019-04-05T07:06:53.475Z,69.93
2019-04-05T07:09:20.470Z,68.00
2019-04-05T07:11:47.459Z,63.47
2019-04-05T07:14:14.383Z,65.83
2019-04-05T07:16:41.524Z,65.97
2019-04-05T07:19:08.434Z,66.20
2019-04-05T07:21:35.405Z,67.37
2019-04-05T07:24:02.024Z,57.23
2019-04-05T07:26:28.639Z,65.57
2019-04-05T07:28:55.597Z,67.10
2019-04-05T07:31:22.218Z,63.20
2019-04-05T07:33:48.850Z,57.90
2019-04-05T07:36:15.525Z,66.93
2019-04-05T07:38:42.169Z,59.63
2019-04-05T07:41:09.163Z,57.93
2019-04-05T07:43:36.298Z,60.30
2019-04-05T07:46:03.153Z,60.50
2019-04-05T07:48:29.995Z,60.37
2019-04-05T07:50:56.669Z,62.60
2019-04-05T07:53:23.648Z,66.10
2019-04-05T07:55:50.369Z,64.83
2019-04-05T07:58:17.402Z,66.10
2019-04-05T08:01:26.370Z,68.10
2019-04-05T08:03:53.114Z,66.00
2019-04-05T08:06:19.834Z,68.63
2019-04-05T08:09:29.660Z,72.53
2019-04-05T08:11:56.516Z,72.07
2019-04-05T08:14:23.886Z,68.43
2019-04-05T08:16:50.764Z,70.63
2019-04-05T08:19:17.471Z,67.40
2019-04-05T08:21:44.241Z,76.13
2019-04-05T08:24:11.388Z,71.80
2019-04-05T08:27:19.249Z,65.37
2019-04-05T08:29:46.087Z,70.73
2019-04-05T08:32:14.731Z,78.40
2019-04-05T08:34:41.862Z,87.10
2019-04-05T08:37:08.698Z,86.20
2019-04-05T08:39:35.413Z,83.70
2019-04-05T08:42:03.671Z,92.90
2019-04-05T08:44:30.430Z,87.60
2019-04-05T08:46:57.418Z,84.07
2019-04-05T08:49:24.042Z,86.17
2019-04-05T08:51:50.719Z,96.43
2019-04-05T08:54:17.322Z,98.37
2019-04-05T08:56:44.098Z,84.13
2019-04-05T08:59:11.017Z,89.47
2019-04-05T09:01:38.048Z,89.10
2019-04-05T09:04:05.126Z,82.20
2019-04-05T09:06:32.169Z,89.40
2019-04-05T09:09:11.631Z,91.37
2019-04-05T09:11:38.759Z,83.20
2019-04-05T09:14:05.389Z,91.63
2019-04-05T09:16:33.576Z,83.10
2019-04-05T09:19:00.563Z,86.03
2019-04-05T09:21:27.187Z,86.30
2019-04-05T09:24:13.478Z,90.53
2019-04-05T09:26:40.363Z,100.77
2019-04-05T09:29:09.247Z,98.07
2019-04-05T09:31:35.619Z,103.73
2019-04-05T09:34:02.781Z,97.03
2019-04-05T09:36:29.974Z,109.20
2019-04-05T09:38:56.874Z,105.47
2019-04-05T09:41:24.251Z,105.23
2019-04-05T09:43:51.350Z,102.80
2019-04-05T09:46:18.554Z,102.13
2019-04-05T09:48:45.413Z,100.27
2019-04-05T09:51:12.466Z,103.27
2019-04-05T09:53:40.030Z,93.83
2019-04-05T09:56:06.843Z,88.57
2019-04-05T09:58:33.456Z,89.47
2019-04-05T10:01:00.500Z,96.33
2019-04-05T10:03:27.541Z,92.13
2019-04-05T10:05:54.271Z,88.53
2019-04-05T10:08:20.969Z,95.20
2019-04-05T10:10:48.029Z,93.17
2019-04-05T10:13:15.014Z,82.77
2019-04-05T10:15:41.804Z,83.83
2019-04-05T10:18:08.961Z,83.30
2019-04-05T10:20:38.813Z,83.77
2019-04-05T10:23:04.430Z,74.33
2019-04-05T10:25:31.862Z,76.90
2019-04-05T10:27:58.995Z,78.83
2019-04-05T10:30:25.917Z,75.87
2019-04-05T10:32:52.913Z,72.57
2019-04-05T10:35:19.768Z,74.90
2019-04-05T10:37:46.878Z,64.87
2019-04-05T10:40:13.925Z,68.03
2019-04-05T10:42:40.742Z,63.03
2019-04-05T10:45:08.656Z,64.57
2019-04-05T10:47:35.699Z,65.73
2019-04-05T10:50:03.846Z,63.93
2019-04-05T10:52:30.748Z,67.03
2019-04-05T10:54:58.155Z,65.90
2019-04-05T10:57:25.779Z,64.50
2019-04-05T10:59:52.856Z,62.77
2019-04-05T11:02:21.071Z,61.40
2019-04-05T11:04:48.209Z,62.63
2019-04-05T11:07:15.000Z,60.60
2019-04-05T11:09:41.851Z,57.33
2019-04-05T11:12:08.903Z,83.53
2019-04-05T11:14:35.851Z,58.60
2019-04-05T11:17:05.024Z,58.80
2019-04-05T11:19:32.332Z,67.53
2019-04-05T11:21:59.974Z,55.97
2019-04-05T11:24:27.194Z,53.70
2019-04-05T11:26:54.387Z,131.13
2019-04-05T11:29:21.104Z,111.13
2019-04-05T11:31:57.125Z,64.37
2019-04-05T11:34:17.054Z,55.07
2019-04-05T11:37:25.242Z,49.83
2019-04-05T11:39:52.013Z,52.70
2019-04-05T11:43:00.107Z,51.10
2019-04-05T11:45:27.117Z,49.63
2019-04-05T11:48:35.158Z,51.30
2019-04-05T11:51:02.176Z,52.50
2019-04-05T11:53:32.185Z,51.10
2019-04-05T11:55:59.076Z,52.63
2019-04-05T11:58:25.882Z,50.67
2019-04-05T12:03:43.191Z,50.83
2019-04-05T12:06:09.918Z,50.50
2019-04-05T12:08:36.636Z,50.03
2019-04-05T12:13:37.809Z,46.43
2019-04-05T12:16:06.151Z,50.50
2019-04-05T12:18:34.804Z,49.70
2019-04-05T12:21:05.759Z,52.47
2019-04-05T12:23:51.649Z,50.07
2019-04-05T12:26:18.419Z,48.67
2019-04-05T12:28:45.707Z,51.17
2019-04-05T12:31:12.491Z,49.20
2019-04-05T12:33:39.684Z,50.17
2019-04-05T12:36:06.515Z,50.47
2019-04-05T12:38:33.579Z,51.83
2019-04-05T12:41:44.905Z,53.20
2019-04-05T12:44:14.333Z,50.43
2019-04-05T12:46:39.355Z,52.00
2019-04-05T12:49:06.127Z,50.00
2019-04-05T12:51:33.256Z,53.80
2019-04-05T12:54:00.471Z,51.00
2019-04-05T12:56:28.262Z,49.83
2019-04-05T12:58:55.978Z,52.50
2019-04-05T13:01:23.886Z,51.80
2019-04-05T13:03:51.452Z,50.40
2019-04-05T13:06:21.739Z,51.30
2019-04-05T13:08:49.283Z,52.17
2019-04-05T13:11:16.421Z,57.30
2019-04-05T13:13:43.131Z,54.70
2019-04-05T13:16:22.466Z,52.80
2019-04-05T13:18:49.459Z,51.37
2019-04-05T13:21:16.448Z,55.77
2019-04-05T13:23:43.914Z,51.40
2019-04-05T13:26:12.234Z,55.17
2019-04-05T13:28:39.160Z,51.70
2019-04-05T13:31:05.943Z,51.03
2019-04-05T13:33:33.418Z,50.63
2019-04-05T13:36:00.433Z,48.53
2019-04-05T13:38:27.237Z,52.30
2019-04-05T13:40:56.736Z,56.27
2019-04-05T13:43:23.159Z,49.50
2019-04-05T13:45:50.231Z,49.40
2019-04-05T13:48:17.143Z,52.63
2019-04-05T13:50:43.980Z,48.87
2019-04-05T13:53:11.844Z,51.97
2019-04-05T13:55:40.758Z,48.70
2019-04-05T13:58:11.159Z,47.87
2019-04-05T14:00:38.654Z,51.93
2019-04-05T14:03:06.257Z,50.53
2019-04-05T14:05:33.647Z,48.67
2019-04-05T14:08:09.913Z,48.67
2019-04-05T14:10:31.918Z,52.17
2019-04-05T14:13:18.226Z,48.10
2019-04-05T14:15:45.552Z,55.63
2019-04-05T14:18:15.340Z,53.17
2019-04-05T14:20:42.413Z,52.40
2019-04-05T14:23:09.585Z,50.43
2019-04-05T14:25:36.570Z,51.97
2019-04-05T14:28:04.574Z,51.20
2019-04-05T14:30:33.074Z,49.60
2019-04-05T14:33:00.830Z,48.80
2019-04-05T14:35:27.775Z,50.33
2019-04-05T14:38:01.853Z,50.17
2019-04-05T14:40:31.580Z,49.77
2019-04-05T14:42:57.937Z,50.07
2019-04-05T14:45:24.707Z,52.07
2019-04-05T14:47:51.472Z,51.70
2019-04-05T14:50:18.335Z,51.17
2019-04-05T14:52:45.416Z,50.53
2019-04-05T14:55:12.243Z,49.17
2019-04-05T14:57:58.935Z,49.10
2019-04-05T15:00:25.794Z,51.10
2019-04-05T15:02:52.901Z,51.20
2019-04-05T15:05:19.691Z,50.47
2019-04-05T15:07:50.651Z,49.87
2019-04-05T15:10:16.136Z,49.63
2019-04-05T15:12:43.804Z,48.70
2019-04-05T15:18:19.880Z,48.90
2019-04-05T15:20:59.883Z,50.63
2019-04-05T15:23:27.727Z,45.10
2019-04-05T15:25:55.739Z,48.80
2019-04-05T15:28:25.242Z,50.20
2019-04-05T15:30:56.667Z,50.97
2019-04-05T15:33:25.584Z,50.10
2019-04-05T15:35:53.298Z,51.40
2019-04-05T15:38:20.075Z,48.47
2019-04-05T15:40:47.071Z,48.77
2019-04-05T15:43:13.730Z,47.37
2019-04-05T15:45:42.704Z,49.30
2019-04-05T15:48:09.499Z,44.90
2019-04-05T15:50:36.210Z,48.07
2019-04-05T15:53:03.792Z,48.90
2019-04-05T15:55:33.328Z,51.93
2019-04-05T15:58:03.368Z,49.63
2019-04-05T16:00:47.868Z,52.17
2019-04-05T16:03:15.035Z,49.53
2019-04-05T16:05:42.211Z,48.13
2019-04-05T16:08:09.814Z,46.87
2019-04-05T16:10:36.631Z,50.93
2019-04-05T16:13:04.533Z,48.60
2019-04-05T16:15:32.316Z,51.40
2019-04-05T16:17:59.141Z,51.73
2019-04-05T16:20:26.205Z,52.03
2019-04-05T16:22:53.421Z,49.77
2019-04-05T16:25:20.305Z,57.00
2019-04-05T16:27:47.320Z,51.97
2019-04-05T16:30:14.561Z,50.60
2019-04-05T16:32:41.287Z,47.97
2019-04-05T16:35:08.694Z,46.10
2019-04-05T16:37:35.591Z,52.13
2019-04-05T16:43:10.219Z,48.63
2019-04-05T16:45:38.684Z,50.33
2019-04-05T16:48:06.111Z,50.10
2019-04-05T16:50:32.785Z,50.10
2019-04-05T16:52:59.751Z,48.53
2019-04-05T16:55:26.380Z,49.60
2019-04-05T16:57:53.167Z,53.60
2019-04-05T17:01:01.216Z,47.10
2019-04-05T17:03:47.882Z,50.50
2019-04-05T17:06:14.844Z,47.77
2019-04-05T17:08:41.504Z,46.97
2019-04-05T17:11:08.827Z,48.07
2019-04-05T17:13:35.597Z,50.33
2019-04-05T17:16:02.309Z,41.93
2019-04-05T17:18:29.363Z,47.17
2019-04-05T17:20:56.300Z,53.97
2019-04-05T17:23:22.992Z,48.97
2019-04-05T17:25:49.773Z,50.70
2019-04-05T17:28:17.219Z,47.43
2019-04-05T17:30:43.854Z,47.33
2019-04-05T17:33:10.772Z,43.00
2019-04-05T17:35:38.010Z,53.53
2019-04-05T17:38:04.730Z,55.67
2019-04-05T17:40:31.397Z,55.73
2019-04-05T17:42:58.344Z,54.97
2019-04-05T17:45:25.196Z,53.40
2019-04-05T17:47:51.943Z,54.17
2019-04-05T17:50:38.261Z,57.40
2019-04-05T17:53:12.503Z,56.57
2019-04-05T17:55:34.474Z,48.83
2019-04-05T17:58:23.113Z,56.37
2019-04-05T18:00:49.844Z,58.77
2019-04-05T18:03:16.578Z,53.13
2019-04-05T18:05:43.703Z,52.57
2019-04-05T18:08:10.338Z,54.03
2019-04-05T18:10:37.968Z,54.67
2019-04-05T18:13:04.755Z,56.53
2019-04-05T18:15:31.507Z,56.43
2019-04-05T18:17:58.503Z,57.17
2019-04-05T18:20:25.670Z,50.63
2019-04-05T18:22:53.095Z,54.60
2019-04-05T18:25:20.490Z,50.23
2019-04-05T18:27:47.981Z,54.13
2019-04-05T18:30:14.961Z,49.50
2019-04-05T18:32:42.129Z,50.83
2019-04-05T18:35:09.221Z,46.67
2019-04-05T18:37:36.530Z,55.43
2019-04-05T18:40:04.079Z,54.57
2019-04-05T18:42:30.874Z,55.00
2019-04-05T18:44:57.735Z,52.63
2019-04-05T18:47:25.201Z,51.00
2019-04-05T18:50:02.474Z,51.57
2019-04-05T18:52:21.223Z,57.70
2019-04-05T18:54:48.106Z,55.90
2019-04-05T18:57:15.065Z,56.97
2019-04-05T18:59:41.920Z,54.40
2019-04-05T19:02:08.856Z,48.90
2019-04-05T19:04:36.478Z,58.50
2019-04-05T19:07:03.523Z,55.70
2019-04-05T19:09:30.283Z,51.97
2019-04-05T19:11:57.179Z,56.07
2019-04-05T19:14:23.934Z,55.23
2019-04-05T19:16:51.028Z,58.30
2019-04-05T19:19:18.451Z,56.77
2019-04-05T19:21:45.536Z,60.67
2019-04-05T19:24:12.161Z,65.60
2019-04-05T19:26:52.157Z,65.13
2019-04-05T19:29:19.176Z,66.17
2019-04-05T19:49:09.099Z,63.70
2019-04-05T19:51:36.101Z,58.77
2019-04-05T19:54:02.915Z,56.47
2019-04-05T19:56:29.603Z,60.30
2019-04-05T19:58:56.465Z,60.13
2019-04-05T20:01:23.402Z,59.83
2019-04-05T20:03:51.899Z,62.20
2019-04-05T20:06:21.243Z,59.10
2019-04-05T20:08:49.118Z,56.53
2019-04-05T20:11:17.927Z,54.83
2019-04-05T20:13:44.480Z,58.57
2019-04-05T20:16:11.204Z,57.63
2019-04-05T20:18:38.060Z,56.23
2019-04-05T20:21:04.689Z,60.83
2019-04-05T20:23:31.322Z,57.57
2019-04-05T20:25:57.996Z,64.33
2019-04-05T20:28:25.027Z,63.23
2019-04-05T20:30:52.341Z,62.23
2019-04-05T20:33:19.150Z,56.77
2019-04-05T20:35:45.901Z,54.47
2019-04-05T20:38:12.722Z,64.90
2019-04-05T20:40:39.866Z,62.87
2019-04-05T20:43:07.059Z,59.27
2019-04-05T20:45:34.201Z,63.83
2019-04-05T20:48:01.236Z,59.33
2019-04-05T20:50:27.953Z,63.83
2019-04-05T20:52:54.980Z,58.17
2019-04-05T20:55:21.767Z,60.13
2019-04-05T20:57:48.388Z,62.77
2019-04-05T21:03:04.271Z,53.67
2019-04-05T21:05:31.713Z,64.47
2019-04-05T21:07:59.139Z,63.20
2019-04-05T21:10:26.701Z,56.37
2019-04-05T21:12:53.803Z,58.57
2019-04-05T21:15:21.220Z,59.03
2019-04-05T21:17:48.858Z,59.23
2019-04-05T21:20:16.881Z,53.03
2019-04-05T21:22:44.739Z,57.40
2019-04-05T21:25:12.086Z,54.77
2019-04-05T21:27:39.191Z,59.30
2019-04-05T21:30:19.458Z,58.33
2019-04-05T21:32:58.671Z,54.10
2019-04-05T21:35:26.209Z,58.60
2019-04-05T21:37:54.018Z,60.53
2019-04-05T21:40:21.466Z,61.83
2019-04-05T21:42:48.856Z,63.60
2019-04-05T21:45:16.298Z,55.83
2019-04-05T21:47:43.927Z,59.47
2019-04-05T21:50:11.241Z,59.23
2019-04-05T21:52:39.374Z,58.53
2019-04-05T21:55:06.683Z,60.57
2019-04-05T21:57:34.475Z,65.97
2019-04-05T22:00:02.007Z,57.50
2019-04-05T22:02:29.675Z,59.40
2019-04-05T22:04:57.864Z,53.90
2019-04-05T22:07:25.341Z,58.83
2019-04-05T22:09:52.527Z,62.23
2019-04-05T22:12:20.289Z,61.50
2019-04-05T22:14:47.554Z,63.67
2019-04-05T22:17:14.609Z,63.80
2019-04-05T22:19:42.191Z,59.33
2019-04-05T22:22:09.306Z,56.90
2019-04-05T22:24:36.475Z,69.47
2019-04-05T22:27:03.960Z,77.13
2019-04-05T22:29:31.133Z,69.40
2019-04-05T22:43:42.267Z,74.73
2019-04-05T22:46:09.729Z,70.23
2019-04-05T22:48:37.999Z,73.93
2019-04-05T22:51:05.378Z,66.20
2019-04-05T22:53:32.194Z,67.03
2019-04-05T22:55:59.100Z,71.67
2019-04-05T22:58:26.380Z,61.97
2019-04-05T23:00:53.584Z,59.30
2019-04-05T23:03:20.562Z,74.70
2019-04-05T23:05:47.480Z,61.50
2019-04-05T23:08:14.459Z,61.10
2019-04-05T23:10:41.623Z,59.47
2019-04-05T23:13:08.453Z,61.83
2019-04-05T23:15:35.076Z,66.07
2019-04-05T23:18:01.815Z,63.73
2019-04-05T23:20:29.138Z,62.20
2019-04-05T23:22:55.882Z,56.53
2019-04-05T23:25:22.879Z,51.93
2019-04-05T23:27:49.969Z,54.33
2019-04-05T23:33:05.724Z,61.50
2019-04-05T23:35:32.807Z,57.00
2019-04-05T23:38:00.301Z,53.03
2019-04-05T23:40:27.834Z,60.60
2019-04-05T23:42:55.082Z,66.90
2019-04-05T23:45:22.176Z,64.13
2019-04-05T23:47:49.374Z,68.93
2019-04-05T23:50:16.465Z,64.57
2019-04-05T23:52:43.557Z,71.67
2019-04-05T23:55:10.725Z,71.13
2019-04-05T23:57:37.837Z,66.20
